Le Grand, CA (95333)

8:02 AM PST on November 22, 2014 (GMT -0800)
KCACHOWC3 | Change Station
CLOSE
Current Station
Personal Weather Station
Location: Chowchilla, CA
Elevation: 289 ft
Nearby Weather Stations

Elev 289 ft 37.13 °N, 120.17 °W | Updated 41 seconds ago

Overcast
Overcast
51.4 °F
Feels Like 51.4 °F
N
4.0
Wind Variable Wind from ESE
Gusts 7.0 mph

Today
High -- | Low -- °F
--% Chance of Precip.
Yesterday
High -- | Low -- °F
Precip. -- in
6:47 AM 4:46 PM
New Moon, 0% visible
Pressure 30.16 in
Visibility 3.0 miles
Clouds Mostly Cloudy 3800 ft
Overcast 6000 ft
Dew Point 48 °F
Humidity 87%
Rainfall 0.00 in
Snow Depth Not available.
UV 0 out of 12
Pollen 1.40 out of 12
Air Quality Not available.
Flu Activity Not available.
METAR KMCE 221553Z AUTO 14009KT 3SM HZ BKN038 OVC060 11/08 A3016 RMK AO2 SLP212 T01110083

More Conditions Fewer Conditions

Pressure 30.16 in
Visibility 3.0 miles
Clouds Mostly Cloudy 3800 ft
Overcast 6000 ft
Dew Point 48 °F
Humidity 87%
Rainfall 0.00 in
Snow Depth Not available.
UV 0 out of 12
Pollen 1.40 out of 12
Air Quality Not available.
Flu Activity Not available.
METAR KMCE 221553Z AUTO 14009KT 3SM HZ BKN038 OVC060 11/08 A3016 RMK AO2 SLP212 T01110083

More Conditions Fewer Conditions

10-Day Weather Forecast

Almanac

Astronomy

Nov. 22, 2014 Rise Set
Actual Time
Civil Twilight
Nautical Twilight
Astronomical Twilight
Moon
Length of Visible Light
Length of Day
Tomorrow will be .
, % of the Moon is Illuminated

Today's Extremes

State Highs State Lows

Community

WunderPhotos

Upload Photos

1,772,841 photos uploaded!

WunderBlogs® & News

Nearby

Air Quality

  Air Quality AQ Index Pollutant
Not available.

Snow Depth

Station Depth Elevation

Earthquake Activity

City Distance Mag. Time & Date
Minimum magnitude displayed is 2.5.

Coastal Water Temperatures

Place Temperature

Nearby Weather Stations